Latest Weather Observations for Port Augusta

IDS60801

Issued at 10:31 am CST Sunday 26 April 2015 (issued every 30 minutes, with the page automatically refreshed every 10 minutes)

About weather observations | Map of weather stations | Latest weather observations for SA | Other Formats
Station Details ID: 018201 Name: PORT AUGUSTA AERO Lat: -32.51 Lon: 137.72 Height: 13.97 m
Data from the previous 72 hours. | See also: Recent months at Port Augusta
Date/Time
CST
Temp
°C
App
Temp
°C
Dew
Point
Rel
Hum
%
Delta-T
°C
Wind Press
QNH
hPa
Press
MSL
hPa
Rain
since 9 am
mm
Dir
 
Spd
km/h
Gust
km/h
Spd
kts
Gust
kts
26/10:00am 15.7 13.2 9.8 68 3.1 SSE 13 19 7 10 1025.8 - 0.0
26/09:30am 14.5 11.9 9.3 71 2.7 ESE 13 19 7 10 1026.0 - 0.0
26/09:00am 14.3 12.0 9.1 71 2.6 SSE 11 17 6 9 1026.0 1025.9 0.6
26/08:30am 13.7 11.4 9.0 73 2.4 SE 11 15 6 8 1025.7 - 0.6
26/08:00am 12.9 11.0 10.6 86 1.2 SSW 11 13 6 7 1025.3 - 0.6
26/07:30am 12.0 10.6 10.9 93 0.6 SW 9 11 5 6 1024.9 - 0.6
26/07:00am 11.6 9.7 10.5 93 0.6 SW 11 15 6 8 1024.5 - 0.6
26/06:30am 11.3 10.1 10.2 93 0.6 SW 7 11 4 6 1024.2 - 0.6
26/06:00am 10.8 8.6 9.4 91 0.7 SW 11 15 6 8 1023.8 1023.7 0.6
26/05:30am 12.0 9.6 10.1 88 1.0 SSW 13 17 7 9 1023.5 - 0.6
26/05:00am 12.4 9.8 10.8 90 0.8 SSW 15 17 8 9 1023.3 - 0.6
26/04:30am 12.1 9.1 10.5 90 0.8 SW 17 19 9 10 1023.1 - 0.6
26/04:00am 12.0 8.9 10.2 89 0.9 S 17 20 9 11 1022.8 - 0.6
26/03:46am 11.9 8.5 10.5 91 0.7 SSW 19 24 10 13 1022.9 - 0.6
26/03:30am 12.4 9.0 10.6 89 0.9 SSW 19 26 10 14 1022.9 - 0.4
26/03:27am 12.3 9.3 10.7 90 0.8 SSW 17 24 9 13 1022.8 - 0.4
26/03:00am 12.4 8.0 10.3 87 1.1 SSW 24 33 13 18 1022.7 1022.6 0.4
26/02:30am 12.7 9.1 10.6 87 1.1 SSW 20 26 11 14 1022.5 - 0.4
26/02:00am 12.7 10.5 10.8 88 1.0 S 13 17 7 9 1022.3 - 0.4
26/01:30am 13.2 10.5 10.2 82 1.6 S 15 19 8 10 1022.3 - 0.4
26/01:00am 12.8 9.3 10.2 84 1.3 S 19 20 10 11 1022.3 - 0.4
26/12:30am 13.5 10.6 11.0 85 1.3 S 17 20 9 11 1022.3 - 0.4
26/12:00am 13.1 11.0 11.2 88 1.0 S 13 17 7 9 1022.3 1022.2 0.4
 
Date/Time
CST
Temp
°C
App
Temp
°C
Dew
Point
Rel
Hum
%
Delta-T
°C
Wind Press
QNH
hPa
Press
MSL
hPa
Rain
since 9 am
mm
Dir
 
Spd
km/h
Gust
km/h
Spd
kts
Gust
kts
25/11:30pm 13.3 10.5 11.2 87 1.1 S 17 24 9 13 1022.4 - 0.4
25/11:00pm 13.3 9.5 11.0 86 1.2 S 22 24 12 13 1022.2 - 0.4
25/10:30pm 13.6 10.9 11.8 89 1.0 S 17 22 9 12 1022.1 - 0.4
25/10:18pm 13.7 12.1 12.8 94 0.5 SSW 13 17 7 9 1022.1 - 0.4
25/10:00pm 13.9 11.9 12.8 93 0.6 SW 15 19 8 10 1022.1 - 0.4
25/09:44pm 14.0 11.2 12.6 91 0.8 SW 19 24 10 13 1021.8 - 0.0
25/09:30pm 14.3 11.1 12.0 86 1.2 SSW 20 26 11 14 1021.6 - 0.0
25/09:00pm 14.6 11.9 11.7 83 1.6 SSW 17 22 9 12 1021.3 1021.2 0.0
25/08:30pm 14.8 11.6 11.4 80 1.8 SSW 19 22 10 12 1020.9 - 0.0
25/08:00pm 14.6 10.8 11.0 79 1.9 S 22 26 12 14 1020.3 - 0.0
25/07:30pm 14.8 10.2 11.2 79 1.9 SSW 26 32 14 17 1019.9 - 0.0
25/07:00pm 15.7 11.6 10.0 69 3.0 S 22 30 12 16 1019.5 - 0.0
25/06:30pm 15.5 12.3 9.8 69 3.0 S 17 20 9 11 1019.2 - 0.0
25/06:00pm 16.1 12.2 9.3 64 3.5 S 20 24 11 13 1018.7 1018.6 0.0
25/05:30pm 17.3 12.1 8.7 57 4.4 S 26 35 14 19 1018.4 - 0.0
25/05:00pm 18.1 12.3 8.1 52 5.1 S 28 37 15 20 1017.9 - 0.0
25/04:30pm 18.3 12.6 8.3 52 5.1 SSW 28 41 15 22 1017.7 - 0.0
25/04:00pm 18.5 13.1 8.2 51 5.3 S 26 33 14 18 1017.5 - 0.0
25/03:30pm 19.3 14.5 7.4 46 6.1 S 22 33 12 18 1017.0 - 0.0
25/03:00pm 18.1 12.7 6.3 46 5.8 S 24 32 13 17 1016.8 1016.7 0.0
25/02:30pm 18.0 12.0 7.1 49 5.5 S 28 37 15 20 1016.8 - 0.0
25/02:00pm 17.7 11.7 7.2 50 5.3 S 28 35 15 19 1016.6 - 0.0
25/01:30pm 18.0 12.4 7.1 49 5.5 S 26 35 14 19 1016.3 - 0.0
25/01:00pm 18.5 12.5 7.0 47 5.8 S 28 39 15 21 1016.1 - 0.0
25/12:30pm 18.3 11.5 6.8 47 5.7 S 32 43 17 23 1016.1 - 0.0
25/12:00pm 18.2 11.2 6.7 47 5.7 S 33 44 18 24 1016.2 1016.1 0.0
25/11:30am 18.1 11.3 7.8 51 5.2 S 33 44 18 24 1016.3 - 0.0
25/11:00am 17.3 10.7 7.6 53 4.9 S 32 41 17 22 1016.2 - 0.0
25/10:30am 16.4 9.8 7.9 57 4.3 SSW 32 41 17 22 1015.9 - 0.0
25/10:06am 16.8 10.0 7.7 55 4.6 S 33 52 18 28 1015.6 - 0.0
25/10:00am 16.9 10.2 8.1 56 4.5 SSW 33 44 18 24 1015.6 - 0.0
25/09:30am 15.9 9.0 8.9 63 3.6 SSW 35 46 19 25 1015.3 - 0.0
25/09:00am 15.2 8.9 9.1 67 3.1 SW 32 39 17 21 1014.8 1014.7 1.0
25/08:30am 14.7 8.5 9.3 70 2.8 SW 32 43 17 23 1014.5 - 1.0
25/08:00am 13.7 9.0 9.4 75 2.2 SW 24 33 13 18 1014.2 - 1.0
25/07:30am 13.0 9.6 9.3 78 1.9 SW 17 20 9 11 1013.7 - 1.0
25/07:00am 12.5 9.0 8.8 78 1.8 SW 17 24 9 13 1013.0 - 1.0
25/06:30am 12.6 9.1 8.9 78 1.9 WSW 17 22 9 12 1012.3 - 1.0
25/06:00am 12.5 9.8 9.0 79 1.8 SW 13 19 7 10 1011.8 1011.7 1.0
25/05:30am 12.4 8.9 8.9 79 1.8 SW 17 26 9 14 1011.3 - 1.0
25/05:00am 12.3 9.4 9.5 83 1.4 WSW 15 22 8 12 1010.7 - 1.0
25/04:30am 12.3 7.7 9.7 84 1.3 SW 24 35 13 19 1010.1 - 1.0
25/04:00am 12.5 7.3 10.4 87 1.1 WSW 28 35 15 19 1009.6 - 1.0
25/03:30am 12.5 6.1 10.6 88 1.0 WSW 35 50 19 27 1009.3 - 1.0
25/03:05am 12.3 7.2 10.7 90 0.8 WSW 28 46 15 25 1009.8 - 0.8
25/03:00am 12.2 7.5 10.6 90 0.8 SW 26 46 14 25 1010.0 1010.0 0.8
25/02:30am 12.4 5.8 10.0 85 1.2 W 35 54 19 29 1009.5 - 0.6
25/02:21am 13.3 7.1 9.4 77 2.0 W 32 50 17 27 1009.3 - 0.4
25/02:00am 13.6 6.7 8.7 72 2.5 WNW 35 48 19 26 1009.3 - 0.4
25/01:30am 13.2 6.7 8.9 75 2.2 WNW 33 44 18 24 1009.6 - 0.4
25/01:00am 13.0 6.6 8.7 75 2.2 WNW 32 44 17 24 1010.1 - 0.4
25/12:30am 13.4 6.7 7.2 66 3.0 NW 32 41 17 22 1010.5 - 0.4
25/12:00am 13.4 6.6 6.7 64 3.2 NW 32 43 17 23 1010.6 1010.6 0.4
 
Date/Time
CST
Temp
°C
App
Temp
°C
Dew
Point
Rel
Hum
%
Delta-T
°C
Wind Press
QNH
hPa
Press
MSL
hPa
Rain
since 9 am
mm
Dir
 
Spd
km/h
Gust
km/h
Spd
kts
Gust
kts
24/11:30pm 12.7 5.9 7.0 68 2.7 WNW 32 41 17 22 1011.2 - 0.4
24/11:00pm 13.0 7.2 6.1 63 3.3 NNW 26 32 14 17 1011.6 - 0.4
24/10:30pm 13.1 8.0 6.0 62 3.4 NNW 22 30 12 16 1011.9 - 0.4
24/10:00pm 13.3 8.2 5.9 61 3.5 NW 22 28 12 15 1012.3 - 0.4
24/09:30pm 13.1 8.4 6.0 62 3.4 NNW 20 28 11 15 1012.4 - 0.4
24/09:00pm 12.5 8.0 6.1 65 3.0 NNW 19 22 10 12 1012.5 1012.4 0.4
24/08:30pm 13.3 8.7 5.5 59 3.7 WNW 19 28 10 15 1012.8 - 0.4
24/08:00pm 13.7 8.7 4.8 55 4.1 WNW 20 32 11 17 1012.9 - 0.4
24/07:30pm 13.9 9.1 4.8 54 4.2 W 19 24 10 13 1012.7 - 0.4
24/07:00pm 14.2 8.5 5.0 54 4.3 W 24 30 13 16 1012.5 - 0.4
24/06:30pm 14.2 9.1 5.8 57 4.0 WNW 22 28 12 15 1012.1 - 0.4
24/06:00pm 15.0 10.1 5.2 52 4.6 W 20 30 11 16 1011.9 1011.8 0.4
24/05:30pm 15.3 8.8 4.9 50 4.9 WSW 28 37 15 20 1011.7 - 0.4
24/05:00pm 16.6 9.1 3.6 42 6.0 W 32 43 17 23 1011.1 - 0.4
24/04:30pm 17.7 9.7 3.6 39 6.6 W 35 46 19 25 1011.0 - 0.4
24/04:00pm 17.4 9.8 4.0 41 6.3 WSW 33 41 18 22 1010.7 - 0.4
24/03:30pm 17.8 9.8 3.7 39 6.6 W 35 46 19 25 1010.6 - 0.4
24/03:18pm 17.6 10.4 3.1 38 6.7 WSW 30 52 16 28 1010.6 - 0.4
24/03:00pm 18.4 11.0 4.9 41 6.5 WSW 33 44 18 24 1010.7 1010.7 0.4
24/02:30pm 18.0 11.9 6.8 48 5.6 WSW 28 37 15 20 1010.5 - 0.4
24/02:00pm 17.4 11.6 8.0 54 4.8 WSW 28 37 15 20 1010.8 - 0.4
24/01:30pm 16.7 10.2 8.9 60 4.0 WSW 33 43 18 23 1011.0 - 0.4
24/01:04pm 16.2 10.4 10.7 70 2.9 WSW 32 50 17 27 1011.3 - 0.4
24/01:00pm 15.6 8.6 9.9 69 3.0 SW 37 50 20 27 1011.5 - 0.4
24/12:30pm 14.5 9.9 12.2 86 1.2 SW 28 41 15 22 1011.6 - 0.4
24/12:09pm 14.8 10.0 11.6 81 1.7 WSW 28 54 15 29 1011.6 - 0.4
24/12:00pm 15.9 12.6 12.8 82 1.7 WSW 22 32 12 17 1011.6 1011.5 0.4
24/11:33am 14.5 10.3 12.5 88 1.1 WSW 26 32 14 17 1011.9 - 0.4
24/11:30am 14.4 10.2 12.4 88 1.1 WSW 26 33 14 18 1011.9 - 0.4
24/11:18am 14.2 7.9 12.2 88 1.1 WSW 37 63 20 34 1012.1 - 0.4
24/11:08am 17.2 9.9 10.3 64 3.7 W 39 63 21 34 1011.8 - 0.0
24/11:00am 19.4 13.4 10.7 57 4.7 W 33 46 18 25 1011.6 - 0.0
24/10:30am 19.5 14.3 10.2 55 5.0 WNW 28 35 15 19 1011.5 - 0.0
24/10:00am 18.9 14.2 10.7 59 4.4 WNW 26 32 14 17 1011.9 - 0.0
24/09:30am 16.9 15.1 11.0 68 3.2 N 11 17 6 9 1012.3 - 0.0
24/09:00am 15.4 13.7 11.2 76 2.2 N 11 15 6 8 1012.3 1012.2 0.0
24/08:30am 14.2 12.9 11.2 82 1.6 NNW 9 13 5 7 1012.4 - 0.0
24/08:00am 13.9 12.9 11.1 83 1.5 NNW 7 9 4 5 1012.2 - 0.0
24/07:30am 12.8 10.6 10.9 88 1.0 NNW 13 15 7 8 1011.9 - 0.0
24/07:00am 11.6 10.7 10.8 95 0.4 NW 6 15 3 8 1012.0 - 0.0
24/06:30am 10.3 9.4 9.4 94 0.4 NNW 4 9 2 5 1012.0 - 0.0
24/06:00am 10.3 9.4 9.1 92 0.6 WSW 4 6 2 3 1011.7 1011.6 0.0
24/05:30am 11.9 10.9 11.0 94 0.5 WSW 7 9 4 5 1011.6 - 0.0
24/05:00am 11.5 11.7 10.4 93 0.6 CALM 0 0 0 0 1011.6 - 0.0
24/04:30am 11.8 10.7 10.7 93 0.6 W 7 11 4 6 1011.8 - 0.0
24/04:00am 12.0 10.5 10.7 92 0.7 W 9 11 5 6 1011.8 - 0.0
24/03:30am 12.9 12.2 11.3 90 0.8 WSW 6 7 3 4 1011.7 - 0.0
24/03:00am 13.1 11.4 11.3 89 1.0 WSW 11 13 6 7 1011.9 1011.8 0.0
24/02:30am 13.8 13.0 11.8 88 1.1 WSW 7 9 4 5 1011.9 - 0.0
24/02:00am 14.0 13.3 11.9 87 1.1 SW 7 9 4 5 1012.3 - 0.0
24/01:30am 14.5 13.2 12.4 87 1.1 WSW 11 13 6 7 1012.7 - 0.0
24/01:00am 14.3 13.7 11.8 85 1.3 SW 6 7 3 4 1012.8 - 0.0
24/12:30am 13.9 13.0 11.2 84 1.4 SSW 7 9 4 5 1013.3 - 0.0
24/12:00am 15.1 14.4 11.9 81 1.7 S 7 9 4 5 1013.4 1013.3 0.0
 
Date/Time
CST
Temp
°C
App
Temp
°C
Dew
Point
Rel
Hum
%
Delta-T
°C
Wind Press
QNH
hPa
Press
MSL
hPa
Rain
since 9 am
mm
Dir
 
Spd
km/h
Gust
km/h
Spd
kts
Gust
kts
23/11:30pm 15.5 14.8 12.1 80 1.9 S 7 11 4 6 1013.6 - 0.0
23/11:00pm 15.8 14.0 12.0 78 2.1 S 13 17 7 9 1013.9 - 0.0
23/10:30pm 16.0 13.7 11.8 76 2.3 SSW 15 20 8 11 1014.3 - 0.0
23/10:00pm 15.8 14.9 11.4 75 2.4 S 7 11 4 6 1014.6 - 0.0
23/09:30pm 15.9 14.6 11.3 74 2.5 S 9 13 5 7 1014.9 - 0.0
23/09:00pm 16.3 13.0 11.0 71 2.8 SSE 19 24 10 13 1014.6 1014.5 0.0
23/08:30pm 16.3 13.6 11.7 74 2.5 SE 17 22 9 12 1014.5 - 0.0
23/08:00pm 16.3 14.0 11.9 75 2.4 SE 15 20 8 11 1014.6 - 0.0
23/07:30pm 16.3 14.1 12.1 76 2.3 SE 15 22 8 12 1014.7 - 0.0
23/07:00pm 16.7 14.1 12.0 74 2.6 SE 17 20 9 11 1014.8 - 0.0
23/06:30pm 16.8 13.7 11.7 72 2.8 SE 19 24 10 13 1014.6 - 0.0
23/06:00pm 17.2 14.0 11.2 68 3.2 SE 19 26 10 14 1014.5 1014.4 0.0
23/05:30pm 17.8 13.4 10.4 62 4.0 SE 24 28 13 15 1014.3 - 0.0
23/05:00pm 18.4 14.7 10.3 59 4.3 SE 20 28 11 15 1014.1 - 0.0
23/04:30pm 19.2 15.5 10.2 56 4.8 SE 20 24 11 13 1014.0 - 0.0
23/04:00pm 20.5 17.0 10.3 52 5.5 SE 19 22 10 12 1014.2 - 0.0
23/03:30pm 20.3 16.8 10.1 52 5.5 SE 19 24 10 13 1014.3 - 0.0
23/03:00pm 21.8 19.4 8.7 43 6.9 W 11 17 6 9 1014.8 1014.7 0.0
23/02:30pm 21.1 19.4 8.4 44 6.7 W 7 13 4 7 1015.0 - 0.0
23/02:00pm 21.1 19.6 9.0 46 6.4 NNW 7 9 4 5 1015.2 - 0.0
23/01:30pm 20.9 19.5 9.5 48 6.1 SSW 7 13 4 7 1015.5 - 0.0
23/01:00pm 20.5 19.5 10.3 52 5.5 WSW 6 9 3 5 1016.1 - 0.0
23/12:30pm 20.0 18.7 9.3 50 5.7 ESE 6 9 3 5 1016.7 - 0.0
23/12:00pm 19.8 18.3 10.5 55 5.0 E 9 15 5 8 1017.1 1017.0 0.0
23/11:30am 18.5 16.5 10.3 59 4.4 E 11 13 6 7 1018.0 - 0.0
23/11:00am 18.3 16.8 10.7 61 4.1 E 9 13 5 7 1018.5 - 0.0

Other Formats:

Comma delimited format used in spreadsheet applications
http://www.bom.gov.au/fwo/IDS60801/IDS60801.95666.axf

JavaScript Object Notation format (JSON) in row-major order
http://www.bom.gov.au/fwo/IDS60801/IDS60801.95666.json